Time;durP1;ratioP1;P1;durP2;ratioP2;P2;SDS_P1;SDS_P2;PMS_P1;PMS_P2;Temp;Humidity;BMP_temperature;BMP_pressure;BME280_temperature;BME280_humidity;BME280_pressure;Samples;Min_cycle;Max_cycle;Signal;HPM_P1;HPM_P2
2021/06/17 00:00:35;;;;;;;14.52;13.32;;;;;;;;;;2042443;29;20225;-60
2021/06/17 00:01:35;;;;;;;15.18;13.70;;;;;;;;;;2047740;29;20167;-62
2021/06/17 00:02:36;;;;;;;14.88;13.52;;;;;;;;;;2049582;29;20171;-60
2021/06/17 00:03:36;;;;;;;14.60;13.27;;;;;;;;;;2049676;28;20531;-60
2021/06/17 00:04:36;;;;;;;15.40;14.00;;;;;;;;;;2049374;29;20203;-60
2021/06/17 00:05:37;;;;;;;14.05;12.88;;;;;;;;;;2046876;29;20275;-59
2021/06/17 00:06:37;;;;;;;14.55;13.25;;;;;;;;;;2049314;29;20202;-61
2021/06/17 00:07:37;;;;;;;15.15;13.55;;;;;;;;;;2049703;28;20245;-60
2021/06/17 00:08:38;;;;;;;14.07;12.82;;;;;;;;;;2049764;29;20207;-60
2021/06/17 00:09:38;;;;;;;14.93;13.48;;;;;;;;;;2048565;29;20229;-62
2021/06/17 00:10:46;;;;;;;14.20;12.95;;;;;;;;;;2051613;28;20179;-62
2021/06/17 00:11:47;;;;;;;15.95;14.55;;;;;;;;;;2040833;28;21048;-59
2021/06/17 00:12:47;;;;;;;14.73;13.52;;;;;;;;;;2049513;28;20178;-61
2021/06/17 00:13:47;;;;;;;14.13;12.82;;;;;;;;;;2057210;28;20186;-61
2021/06/17 00:14:47;;;;;;;14.82;13.40;;;;;;;;;;2057069;28;20184;-61
2021/06/17 00:15:49;;;;;;;14.65;13.35;;;;;;;;;;2049141;28;20178;-59
2021/06/17 00:16:50;;;;;;;14.43;13.10;;;;;;;;;;2040907;29;20573;-60
2021/06/17 00:17:51;;;;;;;13.93;12.73;;;;;;;;;;2043251;28;20175;-61
2021/06/17 00:18:51;;;;;;;14.82;13.48;;;;;;;;;;2056565;28;20257;-60
2021/06/17 00:19:51;;;;;;;14.73;13.25;;;;;;;;;;2049831;28;20263;-61
2021/06/17 00:20:52;;;;;;;16.20;12.63;;;;;;;;;;2048976;28;20167;-60
2021/06/17 00:21:52;;;;;;;14.52;13.38;;;;;;;;;;2048669;28;20175;-60
2021/06/17 00:22:52;;;;;;;13.93;12.68;;;;;;;;;;2045731;29;20682;-59
2021/06/17 00:23:53;;;;;;;14.45;13.25;;;;;;;;;;2044182;29;20666;-60
2021/06/17 00:24:53;;;;;;;15.88;13.50;;;;;;;;;;2048823;29;20206;-60
2021/06/17 00:25:54;;;;;;;14.05;12.95;;;;;;;;;;2049793;28;20170;-60
2021/06/17 00:26:54;;;;;;;15.30;13.88;;;;;;;;;;2055389;28;20249;-60
2021/06/17 00:27:55;;;;;;;15.18;13.57;;;;;;;;;;2050912;28;20171;-61
2021/06/17 00:28:55;;;;;;;14.95;13.45;;;;;;;;;;2052287;28;20186;-59
2021/06/17 00:29:55;;;;;;;14.57;13.52;;;;;;;;;;2041162;29;20184;-60
2021/06/17 00:30:56;;;;;;;14.43;13.13;;;;;;;;;;2044903;28;20293;-61
2021/06/17 00:31:56;;;;;;;14.77;13.48;;;;;;;;;;2055508;28;20174;-60
2021/06/17 00:32:57;;;;;;;14.82;13.52;;;;;;;;;;2050908;28;20174;-57
2021/06/17 00:33:57;;;;;;;14.73;13.43;;;;;;;;;;2056083;28;20180;-60
2021/06/17 00:34:57;;;;;;;15.25;13.85;;;;;;;;;;2049408;28;20181;-61
2021/06/17 00:35:57;;;;;;;15.98;14.48;;;;;;;;;;2048815;29;20183;-60
2021/06/17 00:36:58;;;;;;;15.77;14.10;;;;;;;;;;2048769;29;20186;-61
2021/06/17 00:38:00;;;;;;;15.13;13.75;;;;;;;;;;2049529;28;20662;-60
2021/06/17 00:39:01;;;;;;;15.80;14.18;;;;;;;;;;2049164;28;20549;-60
2021/06/17 00:40:02;;;;;;;16.17;14.77;;;;;;;;;;2049520;28;20199;-62
2021/06/17 00:41:03;;;;;;;15.15;13.75;;;;;;;;;;2044183;28;20234;-59
2021/06/17 00:42:04;;;;;;;15.38;13.90;;;;;;;;;;2046488;28;20680;-56
2021/06/17 00:43:04;;;;;;;15.07;13.70;;;;;;;;;;2054558;28;20330;-57
2021/06/17 00:44:05;;;;;;;14.98;13.68;;;;;;;;;;2049740;28;20182;-58
2021/06/17 00:45:10;;;;;;;16.80;15.15;;;;;;;;;;2054111;28;20210;-58
2021/06/17 00:46:11;;;;;;;15.57;14.07;;;;;;;;;;2053856;28;20253;-57
2021/06/17 00:47:12;;;;;;;14.80;13.57;;;;;;;;;;2053001;28;20744;-59
2021/06/17 00:48:13;;;;;;;16.52;14.88;;;;;;;;;;2054033;28;20171;-61
2021/06/17 00:49:13;;;;;;;14.90;13.63;;;;;;;;;;2048767;28;20197;-61
2021/06/17 00:50:13;;;;;;;15.25;13.85;;;;;;;;;;2052736;28;20179;-57
2021/06/17 00:51:14;;;;;;;15.45;14.23;;;;;;;;;;2051502;28;20221;-59
2021/06/17 00:52:14;;;;;;;16.40;14.90;;;;;;;;;;2054825;28;20261;-59
2021/06/17 00:53:15;;;;;;;15.05;13.75;;;;;;;;;;2045315;28;20212;-57
2021/06/17 00:54:31;;;;;;;15.15;13.57;;;;;;;;;;2045802;28;20598;-56
2021/06/17 00:55:32;;;;;;;15.88;14.25;;;;;;;;;;2041452;29;20170;-60
2021/06/17 00:56:32;;;;;;;15.60;14.23;;;;;;;;;;2041458;29;20202;-61
2021/06/17 00:57:32;;;;;;;15.40;14.15;;;;;;;;;;2044682;29;20614;-59
2021/06/17 00:58:32;;;;;;;15.05;13.75;;;;;;;;;;2055730;28;20178;-58
2021/06/17 00:59:33;;;;;;;15.80;14.15;;;;;;;;;;2048974;28;20257;-61
2021/06/17 01:00:33;;;;;;;16.25;14.70;;;;;;;;;;2046014;28;20187;-61
2021/06/17 01:01:34;;;;;;;15.13;13.95;;;;;;;;;;2054025;28;20178;-60
2021/06/17 01:02:34;;;;;;;15.63;14.32;;;;;;;;;;2050610;28;20265;-57
2021/06/17 01:03:34;;;;;;;16.15;14.50;;;;;;;;;;2055998;28;20221;-59
2021/06/17 01:04:35;;;;;;;15.90;14.50;;;;;;;;;;2045355;28;20832;-59
2021/06/17 01:05:35;;;;;;;16.40;14.85;;;;;;;;;;2041203;29;20250;-61
2021/06/17 01:06:35;;;;;;;16.15;14.73;;;;;;;;;;2041332;29;20195;-60
2021/06/17 01:07:48;;;;;;;16.95;15.32;;;;;;;;;;2041235;29;20254;-60
2021/06/17 01:08:50;;;;;;;14.90;13.45;;;;;;;;;;2041709;28;20211;-60
2021/06/17 01:10:17;;;;;;;15.07;13.82;;;;;;;;;;2042712;28;20607;-60
2021/06/17 01:11:26;;;;;;;16.02;14.55;;;;;;;;;;2051911;28;20535;-59
2021/06/17 01:12:33;;;;;;;15.75;14.43;;;;;;;;;;2057232;28;20174;-59
2021/06/17 01:13:37;;;;;;;15.15;13.68;;;;;;;;;;2051459;28;20171;-60
2021/06/17 01:14:42;;;;;;;16.55;14.93;;;;;;;;;;2048951;28;20186;-61
2021/06/17 01:15:48;;;;;;;16.40;14.80;;;;;;;;;;2057067;28;20185;-61
2021/06/17 01:17:09;;;;;;;15.90;14.27;;;;;;;;;;2048053;29;20201;-60
2021/06/17 01:18:13;;;;;;;14.98;13.60;;;;;;;;;;2045934;29;20213;-55
2021/06/17 01:19:14;;;;;;;16.27;14.68;;;;;;;;;;2040873;29;20176;-59
2021/06/17 01:20:14;;;;;;;16.77;15.18;;;;;;;;;;2041283;29;20210;-58
2021/06/17 01:21:20;;;;;;;16.70;15.15;;;;;;;;;;2040367;29;20282;-57
2021/06/17 01:22:45;;;;;;;16.00;14.50;;;;;;;;;;2043486;29;20179;-59
2021/06/17 01:23:52;;;;;;;16.38;14.77;;;;;;;;;;2048613;29;20250;-59
2021/06/17 01:25:02;;;;;;;15.70;14.48;;;;;;;;;;2041237;29;20211;-60
2021/06/17 01:26:10;;;;;;;15.50;14.20;;;;;;;;;;2040671;29;20191;-60
2021/06/17 01:27:27;;;;;;;16.45;15.02;;;;;;;;;;2040715;29;20179;-59
2021/06/17 01:28:27;;;;;;;15.43;14.20;;;;;;;;;;2044973;29;20226;-57
2021/06/17 01:29:28;;;;;;;15.77;14.48;;;;;;;;;;2047881;29;20667;-60
2021/06/17 01:30:30;;;;;;;16.40;14.93;;;;;;;;;;2047551;28;20266;-58
2021/06/17 01:31:32;;;;;;;16.02;14.73;;;;;;;;;;2048602;28;20254;-61
2021/06/17 01:32:33;;;;;;;15.85;14.45;;;;;;;;;;2048971;28;20166;-60
2021/06/17 01:33:34;;;;;;;17.15;15.45;;;;;;;;;;2055872;28;20639;-60
2021/06/17 01:34:35;;;;;;;16.48;15.02;;;;;;;;;;2054363;28;20181;-60
2021/06/17 01:35:38;;;;;;;15.98;14.52;;;;;;;;;;2057162;28;20201;-60
2021/06/17 01:36:41;;;;;;;15.60;14.27;;;;;;;;;;2055016;28;20230;-61
2021/06/17 01:37:41;;;;;;;16.52;15.13;;;;;;;;;;2048094;28;20178;-60
2021/06/17 01:38:44;;;;;;;15.35;14.05;;;;;;;;;;2053717;28;20275;-61
2021/06/17 01:39:45;;;;;;;16.17;14.65;;;;;;;;;;2048673;28;20174;-61
2021/06/17 01:40:47;;;;;;;16.17;14.75;;;;;;;;;;2048555;29;20679;-61
2021/06/17 01:41:48;;;;;;;16.60;15.15;;;;;;;;;;2048702;28;20623;-62
2021/06/17 01:42:49;;;;;;;16.48;14.88;;;;;;;;;;2048400;29;20241;-61
2021/06/17 01:43:50;;;;;;;16.75;15.13;;;;;;;;;;2046957;28;20221;-61
2021/06/17 01:44:58;;;;;;;15.90;14.40;;;;;;;;;;2044026;28;20246;-61
2021/06/17 01:45:58;;;;;;;16.75;15.25;;;;;;;;;;2049600;28;20171;-61
2021/06/17 01:46:59;;;;;;;16.38;14.95;;;;;;;;;;2054004;28;20177;-61
2021/06/17 01:48:00;;;;;;;16.05;14.57;;;;;;;;;;2048432;29;20205;-62
2021/06/17 01:49:01;;;;;;;15.75;14.43;;;;;;;;;;2046529;28;20266;-61
2021/06/17 01:50:03;;;;;;;16.95;15.25;;;;;;;;;;2046271;28;20178;-61
2021/06/17 01:51:03;;;;;;;17.00;15.60;;;;;;;;;;2050669;28;20183;-61
2021/06/17 01:52:05;;;;;;;15.73;14.20;;;;;;;;;;2053196;28;20266;-63
2021/06/17 01:53:06;;;;;;;16.17;14.50;;;;;;;;;;2048559;28;20175;-61
2021/06/17 01:54:06;;;;;;;16.17;14.88;;;;;;;;;;2049921;28;20170;-61
2021/06/17 01:55:07;;;;;;;16.33;14.85;;;;;;;;;;2047143;28;20599;-59
2021/06/17 01:56:08;;;;;;;16.90;15.40;;;;;;;;;;2057100;28;20202;-61
2021/06/17 01:57:09;;;;;;;17.13;15.48;;;;;;;;;;2057097;28;20635;-62
2021/06/17 01:58:11;;;;;;;15.38;14.27;;;;;;;;;;2043313;28;20275;-60
2021/06/17 01:59:11;;;;;;;15.85;14.25;;;;;;;;;;2040971;29;20187;-59
2021/06/17 02:00:12;;;;;;;15.20;13.82;;;;;;;;;;2044452;29;20624;-58
2021/06/17 02:01:16;;;;;;;16.45;14.95;;;;;;;;;;2047671;28;20237;-62
2021/06/17 02:02:17;;;;;;;16.42;14.93;;;;;;;;;;2044327;29;20180;-59
2021/06/17 02:03:21;;;;;;;16.73;14.88;;;;;;;;;;2048260;28;20202;-57
2021/06/17 02:04:22;;;;;;;15.98;14.63;;;;;;;;;;2051993;28;20205;-59
2021/06/17 02:05:23;;;;;;;17.52;15.70;;;;;;;;;;2053576;28;20170;-61
2021/06/17 02:06:26;;;;;;;16.10;14.50;;;;;;;;;;2051315;28;20195;-61
2021/06/17 02:07:26;;;;;;;17.00;15.38;;;;;;;;;;2048584;28;20536;-60
2021/06/17 02:08:27;;;;;;;16.90;15.45;;;;;;;;;;2048186;29;20185;-59
2021/06/17 02:09:28;;;;;;;17.60;15.98;;;;;;;;;;2044071;28;20167;-59
2021/06/17 02:10:28;;;;;;;16.13;14.70;;;;;;;;;;2041102;29;20200;-58
2021/06/17 02:11:30;;;;;;;15.82;14.32;;;;;;;;;;2040563;29;20179;-60
2021/06/17 02:12:31;;;;;;;15.98;14.57;;;;;;;;;;2041049;29;20222;-61
2021/06/17 02:13:31;;;;;;;15.23;13.85;;;;;;;;;;2040696;29;20202;-61
2021/06/17 02:14:32;;;;;;;15.63;14.43;;;;;;;;;;2043324;29;20175;-62
2021/06/17 02:15:33;;;;;;;16.67;14.93;;;;;;;;;;2045964;29;20198;-62
2021/06/17 02:16:34;;;;;;;16.38;15.05;;;;;;;;;;2055324;28;20569;-61
2021/06/17 02:17:35;;;;;;;16.65;15.25;;;;;;;;;;2049423;28;20174;-62
2021/06/17 02:18:36;;;;;;;17.13;15.15;;;;;;;;;;2055213;28;20246;-60
2021/06/17 02:19:37;;;;;;;16.42;14.73;;;;;;;;;;2050189;28;20183;-60
2021/06/17 02:20:39;;;;;;;16.88;15.27;;;;;;;;;;2046362;28;20203;-62
2021/06/17 02:21:40;;;;;;;15.75;14.45;;;;;;;;;;2042234;29;20172;-62
2021/06/17 02:22:41;;;;;;;17.23;15.05;;;;;;;;;;2041525;29;20176;-62
2021/06/17 02:23:43;;;;;;;16.42;14.82;;;;;;;;;;2046886;29;20179;-61
2021/06/17 02:24:45;;;;;;;15.93;14.40;;;;;;;;;;2048385;28;20211;-60
2021/06/17 02:25:47;;;;;;;15.52;14.35;;;;;;;;;;2048992;28;20189;-59
2021/06/17 02:26:48;;;;;;;17.33;15.70;;;;;;;;;;2049673;28;20204;-59
2021/06/17 02:27:52;;;;;;;16.42;15.02;;;;;;;;;;2056644;28;20167;-62
2021/06/17 02:28:53;;;;;;;16.05;14.65;;;;;;;;;;2056044;28;20163;-63
2021/06/17 02:29:56;;;;;;;16.00;14.68;;;;;;;;;;2049940;28;20198;-60
2021/06/17 02:30:59;;;;;;;15.75;14.27;;;;;;;;;;2055625;28;20163;-61
2021/06/17 02:32:01;;;;;;;16.67;15.27;;;;;;;;;;2050974;28;20178;-63
2021/06/17 02:33:04;;;;;;;17.60;16.05;;;;;;;;;;2055261;28;20515;-62
2021/06/17 02:34:04;;;;;;;17.25;15.65;;;;;;;;;;2049820;28;21546;-62
2021/06/17 02:35:05;;;;;;;16.83;15.23;;;;;;;;;;2049731;28;20194;-63
2021/06/17 02:36:06;;;;;;;16.13;14.63;;;;;;;;;;2055250;28;20182;-61
2021/06/17 02:37:06;;;;;;;16.30;15.00;;;;;;;;;;2053336;28;20220;-63
2021/06/17 02:38:07;;;;;;;15.27;13.93;;;;;;;;;;2055385;28;20175;-61
2021/06/17 02:39:08;;;;;;;16.25;14.73;;;;;;;;;;2049863;28;20182;-62
2021/06/17 02:40:09;;;;;;;15.85;14.45;;;;;;;;;;2048694;28;20182;-64
2021/06/17 02:41:12;;;;;;;15.27;13.98;;;;;;;;;;2052757;28;20261;-62
2021/06/17 02:42:13;;;;;;;17.13;15.63;;;;;;;;;;2052996;28;20233;-61
2021/06/17 02:43:15;;;;;;;16.15;14.75;;;;;;;;;;2053026;28;20179;-60
2021/06/17 02:44:16;;;;;;;15.80;14.38;;;;;;;;;;2046468;29;20187;-61
2021/06/17 02:45:17;;;;;;;17.08;15.38;;;;;;;;;;2046644;29;20190;-59
2021/06/17 02:46:17;;;;;;;17.15;15.38;;;;;;;;;;2050238;28;20198;-63
2021/06/17 02:47:17;;;;;;;16.75;15.30;;;;;;;;;;2051939;28;20178;-61
2021/06/17 02:48:18;;;;;;;15.25;13.95;;;;;;;;;;2049467;28;20545;-61
2021/06/17 02:49:18;;;;;;;14.98;13.77;;;;;;;;;;2052825;28;20163;-60
2021/06/17 02:50:18;;;;;;;16.55;15.05;;;;;;;;;;2050305;28;20179;-62
2021/06/17 02:51:19;;;;;;;15.88;14.38;;;;;;;;;;2049724;28;20166;-63
2021/06/17 02:52:20;;;;;;;16.23;14.73;;;;;;;;;;2051246;28;20220;-61
2021/06/17 02:53:21;;;;;;;16.33;14.93;;;;;;;;;;2052388;28;20717;-62
2021/06/17 02:54:22;;;;;;;15.60;14.10;;;;;;;;;;2052080;28;20170;-61
2021/06/17 02:55:22;;;;;;;16.67;14.98;;;;;;;;;;2048631;28;20249;-61
2021/06/17 02:56:25;;;;;;;20.92;15.52;;;;;;;;;;2046743;29;20246;-60
2021/06/17 02:57:34;;;;;;;17.17;15.50;;;;;;;;;;2043765;29;20273;-62
2021/06/17 02:58:43;;;;;;;16.30;14.70;;;;;;;;;;2055685;28;20311;-62
2021/06/17 03:00:22;;;;;;;17.15;15.68;;;;;;;;;;2048190;28;20179;-61
2021/06/17 03:01:32;;;;;;;16.73;15.07;;;;;;;;;;2045679;29;20200;-62
2021/06/17 03:02:52;;;;;;;16.00;14.70;;;;;;;;;;2049466;29;20163;-61
2021/06/17 03:03:53;;;;;;;16.42;15.02;;;;;;;;;;2048022;29;20198;-63
2021/06/17 03:04:57;;;;;;;16.52;15.23;;;;;;;;;;2046295;29;20596;-62
2021/06/17 03:06:00;;;;;;;17.27;15.45;;;;;;;;;;2042068;29;20183;-60
2021/06/17 03:07:01;;;;;;;16.42;15.10;;;;;;;;;;2048811;28;20570;-59
2021/06/17 03:08:01;;;;;;;16.15;14.73;;;;;;;;;;2044654;28;20255;-60
2021/06/17 03:09:03;;;;;;;17.02;15.50;;;;;;;;;;2049034;28;20176;-57
2021/06/17 03:10:05;;;;;;;15.95;13.95;;;;;;;;;;2052718;28;20177;-59
2021/06/17 03:11:08;;;;;;;17.80;16.27;;;;;;;;;;2052129;28;20178;-61
2021/06/17 03:12:08;;;;;;;15.68;14.32;;;;;;;;;;2047902;28;20202;-62
2021/06/17 03:13:09;;;;;;;17.50;15.90;;;;;;;;;;2052663;28;20559;-61
2021/06/17 03:14:12;;;;;;;16.80;15.32;;;;;;;;;;2048990;28;20187;-60
2021/06/17 03:15:13;;;;;;;17.40;15.77;;;;;;;;;;2054856;28;20623;-61
2021/06/17 03:16:15;;;;;;;16.60;15.20;;;;;;;;;;2054240;28;20201;-60
2021/06/17 03:17:17;;;;;;;18.70;16.67;;;;;;;;;;2053211;28;20248;-62
2021/06/17 03:18:18;;;;;;;18.40;16.45;;;;;;;;;;2053000;28;20646;-63
2021/06/17 03:19:19;;;;;;;17.50;15.85;;;;;;;;;;2046215;28;20204;-62
2021/06/17 03:20:20;;;;;;;16.83;15.15;;;;;;;;;;2051475;28;20220;-62
2021/06/17 03:21:21;;;;;;;17.63;16.05;;;;;;;;;;2055367;28;20197;-61
2021/06/17 03:22:25;;;;;;;19.95;17.98;;;;;;;;;;2049227;28;20274;-63
2021/06/17 03:23:27;;;;;;;16.25;14.73;;;;;;;;;;2048528;28;20187;-60
2021/06/17 03:24:30;;;;;;;17.98;16.38;;;;;;;;;;2055857;28;20166;-62
2021/06/17 03:25:32;;;;;;;16.00;14.55;;;;;;;;;;2054306;28;20181;-62
2021/06/17 03:26:33;;;;;;;17.83;16.33;;;;;;;;;;2050456;28;20202;-62
2021/06/17 03:27:34;;;;;;;16.98;15.48;;;;;;;;;;2055000;28;20541;-61
2021/06/17 03:28:37;;;;;;;17.20;15.70;;;;;;;;;;2049637;28;20551;-61
2021/06/17 03:29:43;;;;;;;17.33;15.63;;;;;;;;;;2056463;28;20655;-61
2021/06/17 03:30:46;;;;;;;17.08;15.57;;;;;;;;;;2050982;28;20241;-60
2021/06/17 03:31:46;;;;;;;16.85;15.20;;;;;;;;;;2040857;28;20176;-61
2021/06/17 03:32:47;;;;;;;16.88;15.25;;;;;;;;;;2053600;28;20658;-59
2021/06/17 03:33:50;;;;;;;17.33;15.65;;;;;;;;;;2057016;28;20285;-61
2021/06/17 03:34:51;;;;;;;16.75;15.13;;;;;;;;;;2048574;28;20167;-61
2021/06/17 03:35:52;;;;;;;19.55;16.20;;;;;;;;;;2057065;28;20178;-60
2021/06/17 03:36:53;;;;;;;18.15;16.52;;;;;;;;;;2045394;28;20266;-56
2021/06/17 03:37:54;;;;;;;16.42;15.02;;;;;;;;;;2055368;28;20589;-60
2021/06/17 03:38:54;;;;;;;17.25;15.65;;;;;;;;;;2046072;28;20644;-59
2021/06/17 03:39:57;;;;;;;18.15;16.33;;;;;;;;;;2055871;28;20197;-60
2021/06/17 03:40:57;;;;;;;16.23;14.85;;;;;;;;;;2051324;28;20202;-61
2021/06/17 03:42:00;;;;;;;17.95;16.25;;;;;;;;;;2057440;28;20166;-61
2021/06/17 03:43:00;;;;;;;18.15;16.40;;;;;;;;;;2045386;28;20571;-61
2021/06/17 03:44:02;;;;;;;17.83;16.13;;;;;;;;;;2054761;28;20192;-61
2021/06/17 03:45:02;;;;;;;15.63;14.10;;;;;;;;;;2046331;28;20234;-63
2021/06/17 03:46:03;;;;;;;16.48;15.07;;;;;;;;;;2054305;28;20391;-61
2021/06/17 03:47:04;;;;;;;17.00;15.40;;;;;;;;;;2051691;28;20181;-62
2021/06/17 03:48:06;;;;;;;16.63;15.10;;;;;;;;;;2053123;28;20191;-61
2021/06/17 03:49:06;;;;;;;17.10;15.48;;;;;;;;;;2048315;28;20166;-61
2021/06/17 03:50:07;;;;;;;17.90;16.15;;;;;;;;;;2052627;28;20262;-61
2021/06/17 03:51:08;;;;;;;16.08;14.52;;;;;;;;;;2047648;28;20173;-61
2021/06/17 03:52:08;;;;;;;16.20;14.70;;;;;;;;;;2055652;28;20642;-60
2021/06/17 03:53:09;;;;;;;16.98;15.48;;;;;;;;;;2049938;28;20190;-62
2021/06/17 03:54:09;;;;;;;16.75;15.25;;;;;;;;;;2048268;28;20198;-59
2021/06/17 03:55:11;;;;;;;17.60;15.70;;;;;;;;;;2056168;28;20635;-59
2021/06/17 03:56:13;;;;;;;17.30;15.65;;;;;;;;;;2053646;28;20213;-60
2021/06/17 03:57:14;;;;;;;16.65;15.18;;;;;;;;;;2053413;28;20174;-60
2021/06/17 03:58:15;;;;;;;19.35;17.48;;;;;;;;;;2052740;28;20270;-60
2021/06/17 03:59:16;;;;;;;15.27;13.88;;;;;;;;;;2046544;28;20633;-58
2021/06/17 04:00:16;;;;;;;16.50;14.90;;;;;;;;;;2046238;28;20213;-59
2021/06/17 04:01:17;;;;;;;16.67;15.13;;;;;;;;;;2045495;28;20171;-59
2021/06/17 04:02:18;;;;;;;16.15;14.65;;;;;;;;;;2053537;28;20178;-57
2021/06/17 04:03:18;;;;;;;17.60;15.48;;;;;;;;;;2049017;28;20183;-61
2021/06/17 04:04:18;;;;;;;16.77;15.07;;;;;;;;;;2048355;28;20191;-60
2021/06/17 04:05:19;;;;;;;16.52;15.02;;;;;;;;;;2052114;28;20198;-60
2021/06/17 04:06:21;;;;;;;16.92;15.35;;;;;;;;;;2051832;28;20206;-60
2021/06/17 04:07:22;;;;;;;17.00;15.40;;;;;;;;;;2048689;28;20167;-61
2021/06/17 04:08:24;;;;;;;16.45;14.95;;;;;;;;;;2054614;28;20189;-60
2021/06/17 04:09:29;;;;;;;15.43;14.02;;;;;;;;;;2052356;28;20685;-60
2021/06/17 04:10:30;;;;;;;15.30;13.90;;;;;;;;;;2050702;28;20175;-60
2021/06/17 04:11:31;;;;;;;16.35;14.90;;;;;;;;;;2046935;28;20703;-61
2021/06/17 04:12:32;;;;;;;16.33;14.88;;;;;;;;;;2047940;28;20174;-60
2021/06/17 04:13:34;;;;;;;17.70;14.75;;;;;;;;;;2056163;28;20522;-61
2021/06/17 04:14:36;;;;;;;15.85;14.55;;;;;;;;;;2048393;28;20179;-62
2021/06/17 04:15:36;;;;;;;16.40;14.70;;;;;;;;;;2049152;28;20215;-61
2021/06/17 04:16:36;;;;;;;17.58;15.73;;;;;;;;;;2051042;28;20711;-61
2021/06/17 04:17:44;;;;;;;16.20;14.77;;;;;;;;;;2055966;28;20744;-62
2021/06/17 04:18:46;;;;;;;14.88;13.60;;;;;;;;;;2044090;28;20648;-61
2021/06/17 04:19:46;;;;;;;15.48;14.07;;;;;;;;;;2043409;28;20194;-60
2021/06/17 04:20:47;;;;;;;15.95;14.48;;;;;;;;;;2052928;28;20197;-62
2021/06/17 04:21:50;;;;;;;16.63;15.13;;;;;;;;;;2056868;28;20182;-60
2021/06/17 04:22:51;;;;;;;16.55;15.02;;;;;;;;;;2042806;28;20172;-60
2021/06/17 04:23:53;;;;;;;16.45;15.02;;;;;;;;;;2047462;28;20202;-60
2021/06/17 04:24:56;;;;;;;15.05;13.65;;;;;;;;;;2044802;28;20211;-60
2021/06/17 04:25:57;;;;;;;15.70;14.18;;;;;;;;;;2050407;28;20183;-60
2021/06/17 04:26:58;;;;;;;15.90;14.20;;;;;;;;;;2040168;29;20685;-60
2021/06/17 04:27:59;;;;;;;15.95;14.45;;;;;;;;;;2046405;28;20184;-60
2021/06/17 04:29:00;;;;;;;15.60;14.30;;;;;;;;;;2045761;28;20182;-61
2021/06/17 04:30:00;;;;;;;16.45;14.77;;;;;;;;;;2049214;28;20582;-59
2021/06/17 04:31:01;;;;;;;14.50;13.35;;;;;;;;;;2048043;28;20210;-63
2021/06/17 04:32:02;;;;;;;15.05;13.70;;;;;;;;;;2050182;28;20201;-61
2021/06/17 04:33:04;;;;;;;15.45;14.07;;;;;;;;;;2045215;28;20198;-62
2021/06/17 04:34:04;;;;;;;16.15;14.38;;;;;;;;;;2047811;28;20296;-60
2021/06/17 04:35:05;;;;;;;16.20;14.70;;;;;;;;;;2051841;28;20181;-62
2021/06/17 04:36:05;;;;;;;15.80;14.25;;;;;;;;;;2050809;28;20253;-60
2021/06/17 04:37:07;;;;;;;15.15;13.75;;;;;;;;;;2051098;28;20642;-60
2021/06/17 04:38:11;;;;;;;17.23;15.52;;;;;;;;;;2053313;28;20561;-61
2021/06/17 04:39:11;;;;;;;16.50;14.90;;;;;;;;;;2052760;28;20178;-63
2021/06/17 04:40:13;;;;;;;16.48;14.77;;;;;;;;;;2050838;28;20225;-61
2021/06/17 04:41:13;;;;;;;19.95;14.95;;;;;;;;;;2052997;28;20170;-61
2021/06/17 04:42:14;;;;;;;16.75;15.05;;;;;;;;;;2049633;28;20185;-56
2021/06/17 04:43:18;;;;;;;16.00;14.48;;;;;;;;;;2052833;28;20225;-57
2021/06/17 04:44:18;;;;;;;18.42;14.52;;;;;;;;;;2051246;28;20171;-56
2021/06/17 04:45:21;;;;;;;16.10;14.65;;;;;;;;;;2053373;28;20237;-61
2021/06/17 04:46:22;;;;;;;16.98;15.20;;;;;;;;;;2051232;28;20191;-61
2021/06/17 04:47:23;;;;;;;16.35;15.02;;;;;;;;;;2054013;28;20185;-61
2021/06/17 04:48:23;;;;;;;19.20;16.38;;;;;;;;;;2048285;28;20219;-61
2021/06/17 04:49:25;;;;;;;16.33;14.68;;;;;;;;;;2053443;28;20199;-61
2021/06/17 04:50:25;;;;;;;15.98;14.48;;;;;;;;;;2055081;28;20205;-59
2021/06/17 04:51:27;;;;;;;18.08;16.38;;;;;;;;;;2050852;28;20202;-62
2021/06/17 04:52:34;;;;;;;16.83;15.40;;;;;;;;;;2053722;28;20183;-62
2021/06/17 04:53:35;;;;;;;16.38;14.82;;;;;;;;;;2049837;28;20178;-62
2021/06/17 04:54:35;;;;;;;16.80;14.23;;;;;;;;;;2054675;28;20166;-62
2021/06/17 04:55:40;;;;;;;16.08;14.43;;;;;;;;;;2049128;28;20775;-61
2021/06/17 04:56:40;;;;;;;15.80;14.20;;;;;;;;;;2055496;28;20190;-62
2021/06/17 04:57:40;;;;;;;17.80;14.68;;;;;;;;;;2048861;28;20527;-63
2021/06/17 04:58:42;;;;;;;15.50;14.10;;;;;;;;;;2056749;28;20170;-62
2021/06/17 04:59:42;;;;;;;15.93;14.50;;;;;;;;;;2048932;28;20171;-62
2021/06/17 05:00:43;;;;;;;16.25;14.70;;;;;;;;;;2046554;28;20640;-60
2021/06/17 05:01:43;;;;;;;15.75;14.18;;;;;;;;;;2045279;28;20178;-61
2021/06/17 05:02:43;;;;;;;15.65;14.20;;;;;;;;;;2056160;28;20269;-61
2021/06/17 05:03:44;;;;;;;16.40;14.80;;;;;;;;;;2048479;28;20187;-60
2021/06/17 05:04:44;;;;;;;15.02;13.63;;;;;;;;;;2041283;28;20171;-59
2021/06/17 05:05:48;;;;;;;15.70;14.07;;;;;;;;;;2050099;28;20187;-60
2021/06/17 05:10:48;;;;;;;15.23;13.68;;;;;;;;;;2044338;28;20187;-62
2021/06/17 05:11:52;;;;;;;15.23;13.63;;;;;;;;;;2048004;28;20646;-61
2021/06/17 05:12:52;;;;;;;14.90;13.50;;;;;;;;;;2055713;28;20635;-59
2021/06/17 05:13:52;;;;;;;16.35;14.80;;;;;;;;;;2046822;28;20287;-61
2021/06/17 05:14:53;;;;;;;16.15;14.52;;;;;;;;;;2046221;28;20179;-59
2021/06/17 05:15:53;;;;;;;14.38;13.18;;;;;;;;;;2042360;28;20187;-60
2021/06/17 05:16:53;;;;;;;14.88;13.60;;;;;;;;;;2044228;28;20298;-60
2021/06/17 05:17:54;;;;;;;14.77;13.48;;;;;;;;;;2043898;28;20203;-60
2021/06/17 05:18:54;;;;;;;15.63;14.23;;;;;;;;;;2055204;28;20185;-62
2021/06/17 05:19:54;;;;;;;14.88;13.55;;;;;;;;;;2050044;28;20171;-61
2021/06/17 05:20:55;;;;;;;16.10;14.50;;;;;;;;;;2051887;28;20179;-65
2021/06/17 05:21:55;;;;;;;15.00;13.55;;;;;;;;;;2047778;29;20190;-61
2021/06/17 05:22:56;;;;;;;16.13;14.52;;;;;;;;;;2047290;28;20234;-61
2021/06/17 05:23:56;;;;;;;14.90;13.40;;;;;;;;;;2042715;29;20271;-61
2021/06/17 05:24:57;;;;;;;16.52;15.00;;;;;;;;;;2043850;29;20214;-60
2021/06/17 05:25:58;;;;;;;15.00;13.30;;;;;;;;;;2045280;29;20174;-61
2021/06/17 05:26:59;;;;;;;14.55;13.18;;;;;;;;;;2049367;29;20182;-61
2021/06/17 05:27:59;;;;;;;14.88;13.55;;;;;;;;;;2054763;28;20634;-61
2021/06/17 05:28:59;;;;;;;14.02;12.68;;;;;;;;;;2056432;28;20190;-60
2021/06/17 05:30:00;;;;;;;14.20;12.88;;;;;;;;;;2055103;28;20179;-59
2021/06/17 05:31:01;;;;;;;13.93;12.68;;;;;;;;;;2053699;28;20180;-51
2021/06/17 05:32:02;;;;;;;17.70;13.50;;;;;;;;;;2048999;28;20187;-56
2021/06/17 05:33:02;;;;;;;15.23;12.18;;;;;;;;;;2046980;28;20663;-54
2021/06/17 05:34:02;;;;;;;14.52;13.20;;;;;;;;;;2045812;28;20187;-62
2021/06/17 05:35:03;;;;;;;17.77;15.45;;;;;;;;;;2048553;28;21129;-57
2021/06/17 05:36:03;;;;;;;14.68;13.32;;;;;;;;;;2051239;28;20191;-56
2021/06/17 05:37:04;;;;;;;13.05;11.95;;;;;;;;;;2068397;23;20284;-58
2021/06/17 05:38:04;;;;;;;16.17;13.93;;;;;;;;;;2063237;28;20190;-57
2021/06/17 05:39:05;;;;;;;14.48;13.10;;;;;;;;;;2066635;28;20188;-59
2021/06/17 05:40:05;;;;;;;14.10;12.45;;;;;;;;;;2064945;28;20241;-61
2021/06/17 05:41:06;;;;;;;13.95;12.73;;;;;;;;;;2060331;28;20197;-63
2021/06/17 05:42:06;;;;;;;14.70;12.45;;;;;;;;;;2064724;28;20181;-59
2021/06/17 05:43:06;;;;;;;13.40;12.18;;;;;;;;;;2062657;28;20172;-64
2021/06/17 05:44:07;;;;;;;13.30;11.50;;;;;;;;;;2061589;28;20174;-63
2021/06/17 05:45:07;;;;;;;12.13;11.15;;;;;;;;;;2059862;28;20596;-64
2021/06/17 05:46:07;;;;;;;15.80;14.23;;;;;;;;;;2062499;28;20173;-63
2021/06/17 05:47:08;;;;;;;13.30;11.95;;;;;;;;;;2060779;28;20686;-64
2021/06/17 05:48:08;;;;;;;12.63;11.45;;;;;;;;;;2061939;28;20170;-63
2021/06/17 05:49:09;;;;;;;12.57;11.32;;;;;;;;;;2060123;28;20801;-63
2021/06/17 05:50:09;;;;;;;13.20;12.10;;;;;;;;;;2063900;28;20173;-65
2021/06/17 05:51:09;;;;;;;12.35;11.25;;;;;;;;;;2062237;28;20594;-63
2021/06/17 05:52:10;;;;;;;13.95;12.65;;;;;;;;;;2059351;28;20177;-61
2021/06/17 05:53:10;;;;;;;13.52;12.38;;;;;;;;;;2049238;28;20174;-60
2021/06/17 05:54:10;;;;;;;12.07;11.10;;;;;;;;;;2055524;28;20593;-62
2021/06/17 05:55:11;;;;;;;11.95;10.98;;;;;;;;;;2054961;28;20777;-63
2021/06/17 05:56:11;;;;;;;12.40;10.98;;;;;;;;;;2058295;28;20232;-62
2021/06/17 05:57:11;;;;;;;12.57;11.40;;;;;;;;;;2060811;28;20336;-60
2021/06/17 05:58:12;;;;;;;14.48;11.80;;;;;;;;;;2060026;28;20177;-64
2021/06/17 05:59:13;;;;;;;12.65;11.55;;;;;;;;;;2066826;28;20651;-64
2021/06/17 06:00:15;;;;;;;12.77;11.43;;;;;;;;;;2066274;28;20201;-60
2021/06/17 06:01:16;;;;;;;11.68;10.60;;;;;;;;;;2060327;28;20189;-62
2021/06/17 06:02:22;;;;;;;12.35;11.15;;;;;;;;;;2066786;28;20228;-62
2021/06/17 06:03:23;;;;;;;13.32;12.15;;;;;;;;;;2064929;28;20557;-56